sensor_id;sensor_type;location;lat;lon;timestamp;pressure;altitude;pressure_sealevel;temperature;humidity
43707;BME280;61348;53.392;-6.248;2024-01-25T00:02:09;101607.31;;;6.32;100.00
43707;BME280;61348;53.392;-6.248;2024-01-25T00:04:36;101594.69;;;6.31;100.00
43707;BME280;61348;53.392;-6.248;2024-01-25T00:07:04;101597.75;;;6.30;100.00
43707;BME280;61348;53.392;-6.248;2024-01-25T00:09:31;101587.53;;;6.30;100.00
43707;BME280;61348;53.392;-6.248;2024-01-25T00:11:59;101588.66;;;6.29;100.00
43707;BME280;61348;53.392;-6.248;2024-01-25T00:14:26;101581.25;;;6.30;100.00
43707;BME280;61348;53.392;-6.248;2024-01-25T00:16:53;101576.84;;;6.29;100.00
43707;BME280;61348;53.392;-6.248;2024-01-25T00:19:21;101563.91;;;6.29;100.00
43707;BME280;61348;53.392;-6.248;2024-01-25T00:21:48;101556.78;;;6.28;100.00
43707;BME280;61348;53.392;-6.248;2024-01-25T00:24:15;101554.03;;;6.28;100.00
43707;BME280;61348;53.392;-6.248;2024-01-25T00:26:43;101551.28;;;6.28;100.00
43707;BME280;61348;53.392;-6.248;2024-01-25T00:29:10;101529.59;;;6.27;100.00
43707;BME280;61348;53.392;-6.248;2024-01-25T00:31:37;101518.59;;;6.27;100.00
43707;BME280;61348;53.392;-6.248;2024-01-25T00:34:05;101519.41;;;6.27;100.00
43707;BME280;61348;53.392;-6.248;2024-01-25T00:36:34;101516.66;;;6.27;100.00
43707;BME280;61348;53.392;-6.248;2024-01-25T00:39:02;101507.06;;;6.25;100.00
43707;BME280;61348;53.392;-6.248;2024-01-25T00:41:31;101496.88;;;6.25;100.00
43707;BME280;61348;53.392;-6.248;2024-01-25T00:43:59;101491.38;;;6.25;100.00
43707;BME280;61348;53.392;-6.248;2024-01-25T00:46:27;101483.13;;;6.25;100.00
43707;BME280;61348;53.392;-6.248;2024-01-25T00:48:54;101485.88;;;6.25;100.00
43707;BME280;61348;53.392;-6.248;2024-01-25T00:51:22;101474.06;;;6.25;100.00
43707;BME280;61348;53.392;-6.248;2024-01-25T00:53:50;101467.75;;;6.24;100.00
43707;BME280;61348;53.392;-6.248;2024-01-25T00:56:18;101468.84;;;6.23;100.00
43707;BME280;61348;53.392;-6.248;2024-01-25T00:58:45;101468.84;;;6.23;100.00
43707;BME280;61348;53.392;-6.248;2024-01-25T01:01:13;101455.13;;;6.23;100.00
43707;BME280;61348;53.392;-6.248;2024-01-25T01:03:41;101458.38;;;6.25;100.00
43707;BME280;61348;53.392;-6.248;2024-01-25T01:06:09;101452.28;;;6.28;100.00
43707;BME280;61348;53.392;-6.248;2024-01-25T01:08:37;101458.81;;;6.32;100.00
43707;BME280;61348;53.392;-6.248;2024-01-25T01:11:06;101453.84;;;6.34;100.00
43707;BME280;61348;53.392;-6.248;2024-01-25T01:13:33;101459.25;;;6.39;100.00
43707;BME280;61348;53.392;-6.248;2024-01-25T01:16:01;101457.56;;;6.43;100.00
43707;BME280;61348;53.392;-6.248;2024-01-25T01:18:28;101459.41;;;6.48;100.00
43707;BME280;61348;53.392;-6.248;2024-01-25T01:20:56;101457.66;;;6.52;100.00
43707;BME280;61348;53.392;-6.248;2024-01-25T01:23:23;101448.53;;;6.56;100.00
43707;BME280;61348;53.392;-6.248;2024-01-25T01:25:51;101446.28;;;6.58;100.00
43707;BME280;61348;53.392;-6.248;2024-01-25T01:28:18;101433.88;;;6.61;100.00
43707;BME280;61348;53.392;-6.248;2024-01-25T01:30:46;101439.59;;;6.64;100.00
43707;BME280;61348;53.392;-6.248;2024-01-25T01:33:13;101436.53;;;6.66;100.00
43707;BME280;61348;53.392;-6.248;2024-01-25T01:35:41;101436.75;;;6.69;100.00
43707;BME280;61348;53.392;-6.248;2024-01-25T01:38:09;101428.50;;;6.69;100.00
43707;BME280;61348;53.392;-6.248;2024-01-25T01:40:36;101433.69;;;6.71;100.00
43707;BME280;61348;53.392;-6.248;2024-01-25T01:43:04;101436.94;;;6.73;100.00
43707;BME280;61348;53.392;-6.248;2024-01-25T01:45:31;101428.38;;;6.74;100.00
43707;BME280;61348;53.392;-6.248;2024-01-25T01:47:59;101432.47;;;6.77;100.00
43707;BME280;61348;53.392;-6.248;2024-01-25T01:50:27;101443.16;;;6.79;100.00
43707;BME280;61348;53.392;-6.248;2024-01-25T01:52:54;101436.56;;;6.80;100.00
43707;BME280;61348;53.392;-6.248;2024-01-25T01:55:22;101442.06;;;6.80;100.00
43707;BME280;61348;53.392;-6.248;2024-01-25T01:57:51;101425.53;;;6.80;100.00
43707;BME280;61348;53.392;-6.248;2024-01-25T02:00:20;101431.88;;;6.80;100.00
43707;BME280;61348;53.392;-6.248;2024-01-25T02:02:48;101421.66;;;6.81;100.00
43707;BME280;61348;53.392;-6.248;2024-01-25T02:05:16;101421.66;;;6.81;100.00
43707;BME280;61348;53.392;-6.248;2024-01-25T02:07:43;101406.78;;;6.82;100.00
43707;BME280;61348;53.392;-6.248;2024-01-25T02:10:11;101394.94;;;6.81;100.00
43707;BME280;61348;53.392;-6.248;2024-01-25T02:12:38;101371.00;;;6.82;100.00
43707;BME280;61348;53.392;-6.248;2024-01-25T02:15:06;101377.00;;;6.84;100.00
43707;BME280;61348;53.392;-6.248;2024-01-25T02:17:34;101377.56;;;6.86;100.00
43707;BME280;61348;53.392;-6.248;2024-01-25T02:20:02;101362.66;;;6.87;100.00
43707;BME280;61348;53.392;-6.248;2024-01-25T02:22:30;101356.03;;;6.88;100.00
43707;BME280;61348;53.392;-6.248;2024-01-25T02:24:58;101353.78;;;6.90;100.00
43707;BME280;61348;53.392;-6.248;2024-01-25T02:27:25;101339.41;;;6.93;100.00
43707;BME280;61348;53.392;-6.248;2024-01-25T02:29:52;101336.34;;;6.94;100.00
43707;BME280;61348;53.392;-6.248;2024-01-25T02:32:20;101343.16;;;6.97;100.00
43707;BME280;61348;53.392;-6.248;2024-01-25T02:34:47;101339.31;;;6.98;100.00
43707;BME280;61348;53.392;-6.248;2024-01-25T02:37:15;101326.03;;;7.00;100.00
43707;BME280;61348;53.392;-6.248;2024-01-25T02:39:43;101309.53;;;7.00;100.00
43707;BME280;61348;53.392;-6.248;2024-01-25T02:42:10;101316.69;;;7.01;100.00
43707;BME280;61348;53.392;-6.248;2024-01-25T02:44:38;101318.28;;;7.02;100.00
43707;BME280;61348;53.392;-6.248;2024-01-25T02:47:05;101304.53;;;7.02;100.00
43707;BME280;61348;53.392;-6.248;2024-01-25T02:49:32;101301.47;;;7.03;100.00
43707;BME280;61348;53.392;-6.248;2024-01-25T02:52:00;101295.66;;;7.05;100.00
43707;BME280;61348;53.392;-6.248;2024-01-25T02:54:28;101294.22;;;7.07;100.00
43707;BME280;61348;53.392;-6.248;2024-01-25T02:56:55;101285.66;;;7.09;100.00
43707;BME280;61348;53.392;-6.248;2024-01-25T02:59:22;101282.59;;;7.10;100.00
43707;BME280;61348;53.392;-6.248;2024-01-25T03:01:50;101277.28;;;7.14;100.00
43707;BME280;61348;53.392;-6.248;2024-01-25T03:04:18;101264.84;;;7.16;100.00
43707;BME280;61348;53.392;-6.248;2024-01-25T03:06:46;101256.78;;;7.20;100.00
43707;BME280;61348;53.392;-6.248;2024-01-25T03:09:14;101258.09;;;7.22;100.00
43707;BME280;61348;53.392;-6.248;2024-01-25T03:11:42;101244.84;;;7.24;100.00
43707;BME280;61348;53.392;-6.248;2024-01-25T03:14:09;101234.03;;;7.28;100.00
43707;BME280;61348;53.392;-6.248;2024-01-25T03:16:36;101234.19;;;7.31;100.00
43707;BME280;61348;53.392;-6.248;2024-01-25T03:19:03;101216.22;;;7.34;100.00
43707;BME280;61348;53.392;-6.248;2024-01-25T03:21:31;101211.53;;;7.34;100.00
43707;BME280;61348;53.392;-6.248;2024-01-25T03:23:58;101217.88;;;7.35;100.00
43707;BME280;61348;53.392;-6.248;2024-01-25T03:26:28;101215.59;;;7.37;100.00
43707;BME280;61348;53.392;-6.248;2024-01-25T03:28:56;101223.56;;;7.39;100.00
43707;BME280;61348;53.392;-6.248;2024-01-25T03:31:23;101216.63;;;7.41;100.00
43707;BME280;61348;53.392;-6.248;2024-01-25T03:33:50;101209.03;;;7.47;100.00
43707;BME280;61348;53.392;-6.248;2024-01-25T03:36:18;101206.19;;;7.52;100.00
43707;BME280;61348;53.392;-6.248;2024-01-25T03:38:45;101198.56;;;7.57;100.00
43707;BME280;61348;53.392;-6.248;2024-01-25T03:41:13;101181.41;;;7.60;100.00
43707;BME280;61348;53.392;-6.248;2024-01-25T03:43:40;101175.28;;;7.63;100.00
43707;BME280;61348;53.392;-6.248;2024-01-25T03:46:11;101171.56;;;7.68;100.00
43707;BME280;61348;53.392;-6.248;2024-01-25T03:48:41;101178.28;;;7.75;100.00
43707;BME280;61348;53.392;-6.248;2024-01-25T03:51:09;101178.44;;;7.79;100.00
43707;BME280;61348;53.392;-6.248;2024-01-25T03:53:36;101178.63;;;7.82;100.00
43707;BME280;61348;53.392;-6.248;2024-01-25T03:56:09;101174.09;;;7.86;100.00
43707;BME280;61348;53.392;-6.248;2024-01-25T03:58:39;101176.56;;;7.88;100.00
43707;BME280;61348;53.392;-6.248;2024-01-25T04:01:06;101167.13;;;7.89;100.00
43707;BME280;61348;53.392;-6.248;2024-01-25T04:03:34;101158.56;;;7.90;100.00
43707;BME280;61348;53.392;-6.248;2024-01-25T04:06:02;101162.31;;;7.94;100.00
43707;BME280;61348;53.392;-6.248;2024-01-25T04:08:30;101164.75;;;7.96;100.00
43707;BME280;61348;53.392;-6.248;2024-01-25T04:10:58;101147.88;;;7.97;100.00
43707;BME280;61348;53.392;-6.248;2024-01-25T04:13:25;101152.28;;;7.98;100.00
43707;BME280;61348;53.392;-6.248;2024-01-25T04:15:53;101134.59;;;7.99;100.00
43707;BME280;61348;53.392;-6.248;2024-01-25T04:18:20;101131.19;;;8.03;100.00
43707;BME280;61348;53.392;-6.248;2024-01-25T04:20:48;101111.91;;;8.03;100.00
43707;BME280;61348;53.392;-6.248;2024-01-25T04:23:18;101102.50;;;8.04;100.00
43707;BME280;61348;53.392;-6.248;2024-01-25T04:25:45;101093.13;;;8.05;100.00
43707;BME280;61348;53.392;-6.248;2024-01-25T04:28:13;101093.91;;;8.05;100.00
43707;BME280;61348;53.392;-6.248;2024-01-25T04:30:40;101091.16;;;8.05;100.00
43707;BME280;61348;53.392;-6.248;2024-01-25T04:33:07;101099.41;;;8.05;100.00
43707;BME280;61348;53.392;-6.248;2024-01-25T04:35:35;101098.63;;;8.05;100.00
43707;BME280;61348;53.392;-6.248;2024-01-25T04:38:03;101103.00;;;8.06;100.00
43707;BME280;61348;53.392;-6.248;2024-01-25T04:40:30;101103.31;;;8.04;100.00
43707;BME280;61348;53.392;-6.248;2024-01-25T04:42:57;101115.47;;;8.03;100.00
43707;BME280;61348;53.392;-6.248;2024-01-25T04:45:26;101111.59;;;8.04;100.00
43707;BME280;61348;53.392;-6.248;2024-01-25T04:47:53;101116.28;;;8.04;100.00
43707;BME280;61348;53.392;-6.248;2024-01-25T04:50:20;101116.28;;;8.04;100.00
43707;BME280;61348;53.392;-6.248;2024-01-25T04:52:48;101113.53;;;8.04;100.00
43707;BME280;61348;53.392;-6.248;2024-01-25T04:55:15;101100.38;;;8.01;100.00
43707;BME280;61348;53.392;-6.248;2024-01-25T04:57:42;101103.13;;;8.01;100.00
43707;BME280;61348;53.392;-6.248;2024-01-25T05:00:11;101088.88;;;7.98;100.00
43707;BME280;61348;53.392;-6.248;2024-01-25T05:02:39;101082.88;;;7.96;100.00
43707;BME280;61348;53.392;-6.248;2024-01-25T05:05:06;101083.50;;;7.93;100.00
43707;BME280;61348;53.392;-6.248;2024-01-25T05:07:33;101067.59;;;7.90;100.00
43707;BME280;61348;53.392;-6.248;2024-01-25T05:10:18;101067.91;;;7.89;100.00
43707;BME280;61348;53.392;-6.248;2024-01-25T05:12:46;101059.97;;;7.87;100.00
43707;BME280;61348;53.392;-6.248;2024-01-25T05:15:13;101044.06;;;7.84;100.00
43707;BME280;61348;53.392;-6.248;2024-01-25T05:17:41;101046.31;;;7.82;100.00
43707;BME280;61348;53.392;-6.248;2024-01-25T05:20:08;101044.69;;;7.81;100.00
43707;BME280;61348;53.392;-6.248;2024-01-25T05:22:36;101030.44;;;7.79;100.00
43707;BME280;61348;53.392;-6.248;2024-01-25T05:25:08;101037.88;;;7.79;100.00
43707;BME280;61348;53.392;-6.248;2024-01-25T05:27:35;101031.88;;;7.77;100.00
43707;BME280;61348;53.392;-6.248;2024-01-25T05:30:03;101032.69;;;7.77;100.00
43707;BME280;61348;53.392;-6.248;2024-01-25T05:32:32;101032.69;;;7.77;100.00
43707;BME280;61348;53.392;-6.248;2024-01-25T05:34:59;101021.66;;;7.77;100.00
43707;BME280;61348;53.392;-6.248;2024-01-25T05:37:27;101028.31;;;7.76;100.00
43707;BME280;61348;53.392;-6.248;2024-01-25T05:40:00;101020.03;;;7.76;100.00
43707;BME280;61348;53.392;-6.248;2024-01-25T05:42:28;101012.59;;;7.77;100.00
43707;BME280;61348;53.392;-6.248;2024-01-25T05:44:55;101012.59;;;7.77;100.00
43707;BME280;61348;53.392;-6.248;2024-01-25T05:47:23;100994.09;;;7.77;100.00
43707;BME280;61348;53.392;-6.248;2024-01-25T05:49:51;101000.44;;;7.78;100.00
43707;BME280;61348;53.392;-6.248;2024-01-25T05:52:18;100997.69;;;7.78;100.00
43707;BME280;61348;53.392;-6.248;2024-01-25T05:54:47;100991.34;;;7.77;100.00
43707;BME280;61348;53.392;-6.248;2024-01-25T05:57:15;100990.19;;;7.78;100.00
43707;BME280;61348;53.392;-6.248;2024-01-25T05:59:43;100983.25;;;7.81;100.00
43707;BME280;61348;53.392;-6.248;2024-01-25T06:02:11;100980.19;;;7.82;100.00
43707;BME280;61348;53.392;-6.248;2024-01-25T06:04:39;100975.16;;;7.84;100.00
43707;BME280;61348;53.392;-6.248;2024-01-25T06:07:06;100961.06;;;7.86;100.00
43707;BME280;61348;53.392;-6.248;2024-01-25T06:09:34;100950.50;;;7.88;100.00
43707;BME280;61348;53.392;-6.248;2024-01-25T06:12:01;100955.69;;;7.89;100.00
43707;BME280;61348;53.392;-6.248;2024-01-25T06:14:30;100955.38;;;7.91;100.00
43707;BME280;61348;53.392;-6.248;2024-01-25T06:16:58;100950.34;;;7.93;100.00
43707;BME280;61348;53.392;-6.248;2024-01-25T06:19:25;100946.16;;;7.95;100.00
43707;BME280;61348;53.392;-6.248;2024-01-25T06:21:52;100959.59;;;7.97;100.00
43707;BME280;61348;53.392;-6.248;2024-01-25T06:24:20;100960.88;;;7.99;100.00
43707;BME280;61348;53.392;-6.248;2024-01-25T06:26:47;100956.84;;;8.06;100.00
43707;BME280;61348;53.392;-6.248;2024-01-25T06:29:15;100953.28;;;8.14;100.00
43707;BME280;61348;53.392;-6.248;2024-01-25T06:31:42;100950.72;;;8.26;100.00
43707;BME280;61348;53.392;-6.248;2024-01-25T06:34:11;100941.81;;;8.37;100.00
43707;BME280;61348;53.392;-6.248;2024-01-25T06:36:39;100933.69;;;8.49;100.00
43707;BME280;61348;53.392;-6.248;2024-01-25T06:39:06;100935.75;;;8.61;100.00
43707;BME280;61348;53.392;-6.248;2024-01-25T06:41:33;100941.75;;;8.72;100.00
43707;BME280;61348;53.392;-6.248;2024-01-25T06:44:01;100936.56;;;8.79;100.00
43707;BME280;61348;53.392;-6.248;2024-01-25T06:46:28;100923.38;;;8.84;100.00
43707;BME280;61348;53.392;-6.248;2024-01-25T06:48:56;100936.84;;;8.94;100.00
43707;BME280;61348;53.392;-6.248;2024-01-25T06:51:23;100919.44;;;9.02;100.00
43707;BME280;61348;53.392;-6.248;2024-01-25T06:53:51;100915.66;;;9.07;100.00
43707;BME280;61348;53.392;-6.248;2024-01-25T06:56:18;100912.56;;;9.08;100.00
43707;BME280;61348;53.392;-6.248;2024-01-25T06:58:46;100916.63;;;9.11;100.00
43707;BME280;61348;53.392;-6.248;2024-01-25T07:01:20;100934.97;;;9.15;100.00
43707;BME280;61348;53.392;-6.248;2024-01-25T07:03:48;100913.97;;;9.23;100.00
43707;BME280;61348;53.392;-6.248;2024-01-25T07:06:19;100903.41;;;9.25;100.00
43707;BME280;61348;53.392;-6.248;2024-01-25T07:08:47;100901.91;;;9.28;100.00
43707;BME280;61348;53.392;-6.248;2024-01-25T07:11:14;100892.97;;;9.31;100.00
43707;BME280;61348;53.392;-6.248;2024-01-25T07:13:44;100895.38;;;9.32;100.00
43707;BME280;61348;53.392;-6.248;2024-01-25T07:16:11;100890.69;;;9.33;100.00
43707;BME280;61348;53.392;-6.248;2024-01-25T07:18:38;100884.03;;;9.34;100.00
43707;BME280;61348;53.392;-6.248;2024-01-25T07:21:06;100871.81;;;9.35;100.00
43707;BME280;61348;53.392;-6.248;2024-01-25T07:23:33;100887.06;;;9.41;100.00
43707;BME280;61348;53.392;-6.248;2024-01-25T07:26:01;100880.53;;;9.45;100.00
43707;BME280;61348;53.392;-6.248;2024-01-25T07:28:28;100884.91;;;9.46;100.00
43707;BME280;61348;53.392;-6.248;2024-01-25T07:30:56;100884.09;;;9.46;100.00
43707;BME280;61348;53.392;-6.248;2024-01-25T07:33:23;100870.75;;;9.48;100.00
43707;BME280;61348;53.392;-6.248;2024-01-25T07:35:51;100878.72;;;9.49;100.00
43707;BME280;61348;53.392;-6.248;2024-01-25T07:38:18;100868.50;;;9.50;100.00
43707;BME280;61348;53.392;-6.248;2024-01-25T07:40:46;100865.72;;;9.50;100.00
43707;BME280;61348;53.392;-6.248;2024-01-25T07:43:13;100871.72;;;9.52;100.00
43707;BME280;61348;53.392;-6.248;2024-01-25T07:45:40;100873.34;;;9.53;100.00
43707;BME280;61348;53.392;-6.248;2024-01-25T07:48:08;100863.91;;;9.54;100.00
43707;BME280;61348;53.392;-6.248;2024-01-25T07:50:41;100880.63;;;9.57;100.00
43707;BME280;61348;53.392;-6.248;2024-01-25T07:53:10;100873.63;;;9.60;100.00
43707;BME280;61348;53.392;-6.248;2024-01-25T07:55:39;100884.69;;;9.60;100.00
43707;BME280;61348;53.392;-6.248;2024-01-25T07:58:06;100865.78;;;9.62;100.00
43707;BME280;61348;53.392;-6.248;2024-01-25T08:00:34;100866.75;;;9.66;100.00
43707;BME280;61348;53.392;-6.248;2024-01-25T08:03:01;100865.59;;;9.67;100.00
43707;BME280;61348;53.392;-6.248;2024-01-25T08:05:28;100866.88;;;9.69;100.00
43707;BME280;61348;53.392;-6.248;2024-01-25T08:08:10;100862.97;;;9.70;100.00
43707;BME280;61348;53.392;-6.248;2024-01-25T08:10:39;100884.28;;;9.70;100.00
43707;BME280;61348;53.392;-6.248;2024-01-25T08:13:06;100863.78;;;9.71;100.00
43707;BME280;61348;53.392;-6.248;2024-01-25T08:15:35;100861.50;;;9.73;100.00
43707;BME280;61348;53.392;-6.248;2024-01-25T08:18:03;100855.59;;;9.74;100.00
43707;BME280;61348;53.392;-6.248;2024-01-25T08:20:31;100863.91;;;9.74;100.00
43707;BME280;61348;53.392;-6.248;2024-01-25T08:22:58;100844.22;;;9.76;100.00
43707;BME280;61348;53.392;-6.248;2024-01-25T08:25:26;100837.53;;;9.77;100.00
43707;BME280;61348;53.392;-6.248;2024-01-25T08:27:54;100844.69;;;9.78;100.00
43707;BME280;61348;53.392;-6.248;2024-01-25T08:30:21;100853.81;;;9.78;100.00
43707;BME280;61348;53.392;-6.248;2024-01-25T08:32:49;100856.22;;;9.80;100.00
43707;BME280;61348;53.392;-6.248;2024-01-25T08:35:16;100835.72;;;9.81;100.00
43707;BME280;61348;53.392;-6.248;2024-01-25T08:37:44;100847.59;;;9.82;100.00
43707;BME280;61348;53.392;-6.248;2024-01-25T08:40:11;100829.06;;;9.82;100.00
43707;BME280;61348;53.392;-6.248;2024-01-25T08:42:39;100834.25;;;9.84;100.00
43707;BME280;61348;53.392;-6.248;2024-01-25T08:45:07;100823.66;;;9.86;100.00
43707;BME280;61348;53.392;-6.248;2024-01-25T08:47:36;100830.47;;;9.88;100.00
43707;BME280;61348;53.392;-6.248;2024-01-25T08:50:05;100831.28;;;9.89;100.00
43707;BME280;61348;53.392;-6.248;2024-01-25T08:52:37;100832.09;;;9.89;100.00
43707;BME280;61348;53.392;-6.248;2024-01-25T08:55:05;100827.38;;;9.90;100.00
43707;BME280;61348;53.392;-6.248;2024-01-25T08:57:32;100835.31;;;9.91;100.00
43707;BME280;61348;53.392;-6.248;2024-01-25T09:00:00;100829.47;;;9.93;100.00
43707;BME280;61348;53.392;-6.248;2024-01-25T09:02:28;100822.09;;;9.97;100.00
43707;BME280;61348;53.392;-6.248;2024-01-25T09:04:56;100830.84;;;9.99;100.00
43707;BME280;61348;53.392;-6.248;2024-01-25T09:07:25;100823.84;;;10.01;100.00
43707;BME280;61348;53.392;-6.248;2024-01-25T09:09:52;100812.91;;;10.05;100.00
43707;BME280;61348;53.392;-6.248;2024-01-25T09:12:20;100803.47;;;10.06;100.00
43707;BME280;61348;53.392;-6.248;2024-01-25T09:14:47;100814.19;;;10.07;100.00
43707;BME280;61348;53.392;-6.248;2024-01-25T09:17:14;100809.56;;;10.11;100.00
43707;BME280;61348;53.392;-6.248;2024-01-25T09:19:49;100813.31;;;10.15;100.00
43707;BME280;61348;53.392;-6.248;2024-01-25T09:22:19;100809.41;;;10.16;100.00
43707;BME280;61348;53.392;-6.248;2024-01-25T09:24:48;100804.81;;;10.20;100.00
43707;BME280;61348;53.392;-6.248;2024-01-25T09:27:15;100797.78;;;10.23;100.00
43707;BME280;61348;53.392;-6.248;2024-01-25T09:29:43;100799.06;;;10.25;100.00
43707;BME280;61348;53.392;-6.248;2024-01-25T09:32:11;100792.38;;;10.26;100.00
43707;BME280;61348;53.392;-6.248;2024-01-25T09:34:38;100790.53;;;10.30;100.00
43707;BME280;61348;53.392;-6.248;2024-01-25T09:37:07;100792.63;;;10.33;100.00
43707;BME280;61348;53.392;-6.248;2024-01-25T09:39:35;100794.25;;;10.34;100.00
43707;BME280;61348;53.392;-6.248;2024-01-25T09:42:04;100781.69;;;10.37;100.00
43707;BME280;61348;53.392;-6.248;2024-01-25T09:44:31;100778.56;;;10.38;100.00
43707;BME280;61348;53.392;-6.248;2024-01-25T09:47:03;100771.53;;;10.41;100.00
43707;BME280;61348;53.392;-6.248;2024-01-25T09:49:33;100777.66;;;10.47;100.00
43707;BME280;61348;53.392;-6.248;2024-01-25T09:52:05;100773.75;;;10.48;100.00
43707;BME280;61348;53.392;-6.248;2024-01-25T09:54:35;100769.47;;;10.50;100.00
43707;BME280;61348;53.392;-6.248;2024-01-25T09:57:07;100764.75;;;10.51;100.00
43707;BME280;61348;53.392;-6.248;2024-01-25T09:59:35;100776.75;;;10.55;100.00
43707;BME280;61348;53.392;-6.248;2024-01-25T10:02:03;100764.19;;;10.57;100.00
43707;BME280;61348;53.392;-6.248;2024-01-25T10:04:31;100778.16;;;10.61;100.00
43707;BME280;61348;53.392;-6.248;2024-01-25T10:06:59;100766.47;;;10.67;100.00
43707;BME280;61348;53.392;-6.248;2024-01-25T10:09:27;100753.91;;;10.70;100.00
43707;BME280;61348;53.392;-6.248;2024-01-25T10:11:54;100758.44;;;10.74;100.00
43707;BME280;61348;53.392;-6.248;2024-01-25T10:14:42;100766.38;;;10.76;100.00
43707;BME280;61348;53.392;-6.248;2024-01-25T10:17:09;100764.19;;;10.81;100.00
43707;BME280;61348;53.392;-6.248;2024-01-25T10:19:37;100765.47;;;10.84;100.00
43707;BME280;61348;53.392;-6.248;2024-01-25T10:22:06;100762.00;;;10.87;100.00
43707;BME280;61348;53.392;-6.248;2024-01-25T10:24:36;100762.00;;;10.87;100.00
43707;BME280;61348;53.392;-6.248;2024-01-25T10:27:04;100777.94;;;10.90;100.00
43707;BME280;61348;53.392;-6.248;2024-01-25T10:29:32;100769.63;;;10.90;100.00
43707;BME280;61348;53.392;-6.248;2024-01-25T10:32:00;100783.09;;;10.91;100.00
43707;BME280;61348;53.392;-6.248;2024-01-25T10:34:28;100781.16;;;10.92;100.00
43707;BME280;61348;53.392;-6.248;2024-01-25T10:36:57;100766.16;;;10.93;100.00
43707;BME280;61348;53.392;-6.248;2024-01-25T10:39:25;100772.97;;;10.95;100.00
43707;BME280;61348;53.392;-6.248;2024-01-25T10:41:52;100775.38;;;10.97;100.00
43707;BME280;61348;53.392;-6.248;2024-01-25T10:44:20;100763.16;;;10.98;100.00
43707;BME280;61348;53.392;-6.248;2024-01-25T10:46:48;100771.56;;;11.01;100.00
43707;BME280;61348;53.392;-6.248;2024-01-25T10:49:17;100755.41;;;11.04;100.00
43707;BME280;61348;53.392;-6.248;2024-01-25T10:51:45;100755.06;;;11.05;100.00
43707;BME280;61348;53.392;-6.248;2024-01-25T10:54:14;100744.44;;;11.07;100.00
43707;BME280;61348;53.392;-6.248;2024-01-25T10:56:42;100753.22;;;11.09;100.00
43707;BME280;61348;53.392;-6.248;2024-01-25T10:59:13;100761.53;;;11.09;100.00
43707;BME280;61348;53.392;-6.248;2024-01-25T11:01:44;100749.28;;;11.10;100.00
43707;BME280;61348;53.392;-6.248;2024-01-25T11:04:17;100754.13;;;11.13;100.00
43707;BME280;61348;53.392;-6.248;2024-01-25T11:06:45;100744.75;;;11.18;100.00
43707;BME280;61348;53.392;-6.248;2024-01-25T11:09:18;100743.63;;;11.19;100.00
43707;BME280;61348;53.392;-6.248;2024-01-25T11:11:47;100739.34;;;11.21;100.00
43707;BME280;61348;53.392;-6.248;2024-01-25T11:14:15;100733.91;;;11.25;100.00
43707;BME280;61348;53.392;-6.248;2024-01-25T11:16:46;100743.50;;;11.27;100.00
43707;BME280;61348;53.392;-6.248;2024-01-25T11:19:18;100740.47;;;11.32;100.00
43707;BME280;61348;53.392;-6.248;2024-01-25T11:21:48;100732.25;;;11.36;100.00
43707;BME280;61348;53.392;-6.248;2024-01-25T11:24:23;100735.13;;;11.39;100.00
43707;BME280;61348;53.392;-6.248;2024-01-25T11:26:53;100729.69;;;11.43;100.00
43707;BME280;61348;53.392;-6.248;2024-01-25T11:29:22;100719.88;;;11.45;100.00
43707;BME280;61348;53.392;-6.248;2024-01-25T11:31:51;100720.75;;;11.49;100.00
43707;BME280;61348;53.392;-6.248;2024-01-25T11:34:19;100728.38;;;11.52;100.00
43707;BME280;61348;53.392;-6.248;2024-01-25T11:36:48;100728.50;;;11.56;100.00
43707;BME280;61348;53.392;-6.248;2024-01-25T11:39:16;100738.78;;;11.55;100.00
43707;BME280;61348;53.392;-6.248;2024-01-25T11:41:44;100739.22;;;11.57;100.00
43707;BME280;61348;53.392;-6.248;2024-01-25T11:44:12;100728.63;;;11.59;100.00
43707;BME280;61348;53.392;-6.248;2024-01-25T11:46:43;100734.94;;;11.60;100.00
43707;BME280;61348;53.392;-6.248;2024-01-25T11:49:10;100728.63;;;11.59;100.00
43707;BME280;61348;53.392;-6.248;2024-01-25T11:51:38;100722.25;;;11.59;100.00
43707;BME280;61348;53.392;-6.248;2024-01-25T11:54:05;100723.06;;;11.59;100.00
43707;BME280;61348;53.392;-6.248;2024-01-25T11:56:37;100719.00;;;11.57;100.00
43707;BME280;61348;53.392;-6.248;2024-01-25T11:59:10;100706.31;;;11.56;100.00
43707;BME280;61348;53.392;-6.248;2024-01-25T12:01:39;100699.16;;;11.55;100.00
43707;BME280;61348;53.392;-6.248;2024-01-25T12:04:08;100694.31;;;11.52;100.00
43707;BME280;61348;53.392;-6.248;2024-01-25T12:06:36;100694.31;;;11.52;100.00
43707;BME280;61348;53.392;-6.248;2024-01-25T12:09:11;100692.34;;;11.52;100.00
43707;BME280;61348;53.392;-6.248;2024-01-25T12:11:41;100681.25;;;11.52;100.00
43707;BME280;61348;53.392;-6.248;2024-01-25T12:14:09;100684.03;;;11.52;100.00
43707;BME280;61348;53.392;-6.248;2024-01-25T12:16:37;100694.41;;;11.55;100.00
43707;BME280;61348;53.392;-6.248;2024-01-25T12:19:06;100677.06;;;11.58;100.00
43707;BME280;61348;53.392;-6.248;2024-01-25T12:21:34;100666.44;;;11.60;100.00
43707;BME280;61348;53.392;-6.248;2024-01-25T12:24:03;100670.13;;;11.65;100.00
43707;BME280;61348;53.392;-6.248;2024-01-25T12:26:34;100658.28;;;11.68;100.00
43707;BME280;61348;53.392;-6.248;2024-01-25T12:29:02;100671.84;;;11.69;100.00
43707;BME280;61348;53.392;-6.248;2024-01-25T12:31:30;100674.75;;;11.73;100.00
43707;BME280;61348;53.392;-6.248;2024-01-25T12:33:58;100654.97;;;11.74;100.00
43707;BME280;61348;53.392;-6.248;2024-01-25T12:36:26;100654.59;;;11.76;100.00
43707;BME280;61348;53.392;-6.248;2024-01-25T12:38:53;100651.91;;;11.79;100.00
43707;BME280;61348;53.392;-6.248;2024-01-25T12:41:20;100644.41;;;11.80;100.00
43707;BME280;61348;53.392;-6.248;2024-01-25T12:43:48;100660.34;;;11.83;100.00